Time;durP1;ratioP1;P1;durP2;ratioP2;P2;SDS_P1;SDS_P2;PMS_P1;PMS_P2;Temp;Humidity;BMP_temperature;BMP_pressure;BME280_temperature;BME280_humidity;BME280_pressure;Samples;Min_cycle;Max_cycle;Signal;HPM_P1;HPM_P2
2021/05/02 00:01:09;;;;;;;;;;;;;;;5.43;100.00;98716.13;4892573;29;19923;-77
2021/05/02 00:03:34;;;;;;;;;;;;;;;5.40;100.00;98716.97;4911190;29;19915;-77
2021/05/02 00:05:59;;;;;;;;;;;;;;;5.68;100.00;98714.00;4891814;29;19927;-77
2021/05/02 00:08:26;;;;;;;;;;;;;;;5.67;100.00;98725.06;4874486;29;19919;-76
2021/05/02 00:10:52;;;;;;;;;;;;;;;5.26;100.00;98718.06;4886703;29;19935;-76
2021/05/02 00:13:17;;;;;;;;;;;;;;;5.22;100.00;98722.38;4909138;29;19934;-77
2021/05/02 00:15:42;;;;;;;;;;;;;;;5.15;100.00;98716.50;4892368;29;19967;-77
2021/05/02 00:18:08;;;;;;;;;;;;;;;5.20;100.00;98721.53;4892314;29;20017;-77
2021/05/02 00:20:33;;;;;;;;;;;;;;;4.96;100.00;98725.31;4893746;29;19929;-76
2021/05/02 00:23:02;;;;;;;;;;;;;;;5.10;100.00;98717.47;4880144;29;19942;-77
2021/05/02 00:25:30;;;;;;;;;;;;;;;5.03;100.00;98721.81;4881085;29;19967;-76
2021/05/02 00:27:55;;;;;;;;;;;;;;;5.06;100.00;98731.13;4893778;29;19919;-77
2021/05/02 00:30:22;;;;;;;;;;;;;;;5.03;100.00;98722.63;4893240;29;19923;-77
2021/05/02 00:32:48;;;;;;;;;;;;;;;5.06;100.00;98728.56;4879435;29;20006;-77
2021/05/02 00:35:14;;;;;;;;;;;;;;;5.29;100.00;98728.22;4875321;29;19987;-76
2021/05/02 00:37:40;;;;;;;;;;;;;;;5.14;100.00;98734.41;4891615;29;19923;-77
2021/05/02 00:40:06;;;;;;;;;;;;;;;5.27;100.00;98728.28;4891814;29;19919;-76
2021/05/02 00:42:32;;;;;;;;;;;;;;;5.33;100.00;98730.72;4892284;29;19919;-77
2021/05/02 00:45:02;;;;;;;;;;;;;;;5.49;100.00;98717.72;4889168;29;19923;-76
2021/05/02 00:47:37;;;;;;;;;;;;;;;5.79;100.00;98719.78;4879295;29;19916;-76
2021/05/02 00:50:05;;;;;;;;;;;;;;;6.09;100.00;98722.69;4892203;29;20349;-76
2021/05/02 00:52:33;;;;;;;;;;;;;;;5.95;100.00;98719.53;4876255;29;21277;-76
2021/05/02 00:55:03;;;;;;;;;;;;;;;5.97;100.00;98713.50;4910317;29;20128;-76
2021/05/02 00:57:35;;;;;;;;;;;;;;;6.05;100.00;98718.50;4891229;29;20436;-76
2021/05/02 01:00:03;;;;;;;;;;;;;;;5.76;100.00;98721.53;4891140;29;20326;-76
2021/05/02 01:02:29;;;;;;;;;;;;;;;5.63;100.00;98718.31;4881488;29;19915;-77
2021/05/02 01:04:55;;;;;;;;;;;;;;;5.44;100.00;98721.19;4873251;29;19915;-77
2021/05/02 01:07:21;;;;;;;;;;;;;;;5.16;100.00;98722.47;4893902;29;20025;-76
2021/05/02 01:09:48;;;;;;;;;;;;;;;5.28;100.00;98719.75;4894454;29;20405;-77
2021/05/02 01:12:14;;;;;;;;;;;;;;;4.98;100.00;98719.31;4894551;29;19915;-79
2021/05/02 01:14:44;;;;;;;;;;;;;;;5.06;100.00;98720.91;4896080;29;19923;-77
2021/05/02 01:17:18;;;;;;;;;;;;;;;4.70;100.00;98723.09;4896142;29;19921;-77
2021/05/02 01:19:45;;;;;;;;;;;;;;;4.57;100.00;98730.06;4898292;29;19915;-76
2021/05/02 01:22:14;;;;;;;;;;;;;;;4.47;100.00;98728.47;4896018;29;19926;-77
2021/05/02 01:24:43;;;;;;;;;;;;;;;4.48;100.00;98719.97;4899320;29;19919;-76
2021/05/02 01:27:08;;;;;;;;;;;;;;;4.53;100.00;98721.59;4896885;29;20433;-77
2021/05/02 01:29:34;;;;;;;;;;;;;;;4.45;100.00;98723.41;4876038;29;20001;-76
2021/05/02 01:31:59;;;;;;;;;;;;;;;4.44;100.00;98726.81;4912048;29;19919;-77
2021/05/02 01:34:24;;;;;;;;;;;;;;;4.33;100.00;98731.19;4896261;29;19926;-77
2021/05/02 01:36:49;;;;;;;;;;;;;;;4.41;100.00;98731.94;4896568;29;19919;-77
2021/05/02 01:39:15;;;;;;;;;;;;;;;4.66;100.00;98729.13;4895700;29;19923;-77
2021/05/02 01:41:40;;;;;;;;;;;;;;;4.70;100.00;98720.53;4881787;29;19951;-77
2021/05/02 01:44:06;;;;;;;;;;;;;;;4.84;100.00;98723.78;4894373;29;19930;-77
2021/05/02 01:46:32;;;;;;;;;;;;;;;4.69;100.00;98723.97;4911534;29;19974;-77
2021/05/02 01:48:58;;;;;;;;;;;;;;;4.68;100.00;98720.56;4883175;29;19965;-77
2021/05/02 01:51:23;;;;;;;;;;;;;;;4.74;100.00;98724.75;4889227;29;19919;-77
2021/05/02 01:53:49;;;;;;;;;;;;;;;4.66;100.00;98721.47;4882108;29;19923;-77
2021/05/02 01:56:14;;;;;;;;;;;;;;;4.57;100.00;98720.69;4897275;29;20049;-77
2021/05/02 01:58:40;;;;;;;;;;;;;;;4.59;100.00;98724.09;4893770;29;20388;-77
2021/05/02 02:01:06;;;;;;;;;;;;;;;4.64;100.00;98723.19;4894226;29;19926;-77
2021/05/02 02:03:32;;;;;;;;;;;;;;;4.56;100.00;98729.22;4898396;29;19970;-77
2021/05/02 02:05:57;;;;;;;;;;;;;;;4.50;100.00;98731.00;4899204;29;20021;-77
2021/05/02 02:08:23;;;;;;;;;;;;;;;4.50;100.00;98731.84;4900049;29;20422;-77
2021/05/02 02:10:48;;;;;;;;;;;;;;;4.57;100.00;98732.63;4899592;29;19919;-77
2021/05/02 02:13:15;;;;;;;;;;;;;;;4.68;100.00;98737.59;4898668;29;19919;-77
2021/05/02 02:15:40;;;;;;;;;;;;;;;4.57;100.00;98738.56;4895133;29;19963;-77
2021/05/02 02:18:06;;;;;;;;;;;;;;;4.61;100.00;98745.31;4898507;29;19919;-77
2021/05/02 02:20:35;;;;;;;;;;;;;;;4.67;100.00;98739.28;4886611;29;19934;-77
2021/05/02 02:23:01;;;;;;;;;;;;;;;4.66;100.00;98737.59;4897811;29;20004;-77
2021/05/02 02:25:28;;;;;;;;;;;;;;;4.62;100.00;98738.50;4898333;29;19919;-77
2021/05/02 02:27:57;;;;;;;;;;;;;;;4.51;100.00;98738.63;4900074;29;19987;-77
2021/05/02 02:30:23;;;;;;;;;;;;;;;4.59;100.00;98741.09;4899124;29;19915;-77
2021/05/02 02:32:48;;;;;;;;;;;;;;;4.65;100.00;98745.25;4894475;29;20014;-77
2021/05/02 02:35:14;;;;;;;;;;;;;;;4.67;100.00;98748.66;4888399;29;20375;-77
2021/05/02 02:37:41;;;;;;;;;;;;;;;4.66;100.00;98752.06;4898130;29;20507;-77
2021/05/02 02:40:08;;;;;;;;;;;;;;;4.64;100.00;98748.69;4898336;29;19919;-77
2021/05/02 02:42:34;;;;;;;;;;;;;;;4.66;100.00;98741.88;4914482;29;19923;-77
2021/05/02 02:45:03;;;;;;;;;;;;;;;4.66;100.00;98741.88;4892191;29;19926;-77
2021/05/02 02:47:35;;;;;;;;;;;;;;;4.90;100.00;98741.53;4897667;29;19915;-76
2021/05/02 02:50:02;;;;;;;;;;;;;;;4.77;100.00;98745.97;4885082;29;19998;-76
2021/05/02 02:52:27;;;;;;;;;;;;;;;4.75;100.00;98751.97;4883257;29;19919;-78
2021/05/02 02:55:02;;;;;;;;;;;;;;;4.79;100.00;98753.63;4899411;29;19934;-76
2021/05/02 02:57:27;;;;;;;;;;;;;;;4.84;100.00;98749.28;4914934;29;20357;-76
2021/05/02 02:59:54;;;;;;;;;;;;;;;4.80;100.00;98757.84;4894337;29;19922;-76
2021/05/02 03:02:20;;;;;;;;;;;;;;;4.74;100.00;98755.34;4892769;29;19922;-76
2021/05/02 03:04:46;;;;;;;;;;;;;;;4.74;100.00;98763.00;4897749;29;19925;-76
2021/05/02 03:07:12;;;;;;;;;;;;;;;4.55;100.00;98760.69;4915901;29;20018;-76
2021/05/02 03:09:37;;;;;;;;;;;;;;;4.53;100.00;98762.41;4898557;29;19915;-77
2021/05/02 03:12:05;;;;;;;;;;;;;;;4.61;100.00;98760.63;4898509;29;20330;-76
2021/05/02 03:14:30;;;;;;;;;;;;;;;4.58;100.00;98772.53;4898478;29;20014;-76
2021/05/02 03:16:56;;;;;;;;;;;;;;;4.40;100.00;98771.03;4881293;29;20540;-76
2021/05/02 03:19:26;;;;;;;;;;;;;;;4.44;100.00;98771.88;4902660;29;19915;-77
2021/05/02 03:21:54;;;;;;;;;;;;;;;4.45;100.00;98776.09;4898107;29;19917;-76
2021/05/02 03:24:24;;;;;;;;;;;;;;;4.45;100.00;98776.09;4920249;29;20254;-76
2021/05/02 03:26:49;;;;;;;;;;;;;;;4.46;100.00;98776.09;4897641;29;19923;-77
2021/05/02 03:29:15;;;;;;;;;;;;;;;4.35;100.00;98793.19;4884057;29;19919;-75
2021/05/02 03:31:40;;;;;;;;;;;;;;;4.40;100.00;98782.09;4890914;29;20040;-78
2021/05/02 03:34:08;;;;;;;;;;;;;;;4.33;100.00;98782.16;4910397;29;19975;-79
2021/05/02 03:36:34;;;;;;;;;;;;;;;4.15;100.00;98790.84;4897163;29;19951;-78
2021/05/02 03:39:00;;;;;;;;;;;;;;;4.18;100.00;98794.22;4897420;29;19915;-79
2021/05/02 03:41:26;;;;;;;;;;;;;;;4.19;100.00;98793.34;4891309;29;19919;-78
2021/05/02 03:43:52;;;;;;;;;;;;;;;4.16;100.00;98798.47;4893740;29;19923;-77
2021/05/02 03:46:25;;;;;;;;;;;;;;;4.16;100.00;98798.47;4910251;29;19923;-78
2021/05/02 03:48:56;;;;;;;;;;;;;;;3.98;100.00;98803.75;4906504;29;19961;-78
2021/05/02 03:51:22;;;;;;;;;;;;;;;4.14;100.00;98805.28;4890736;29;20381;-78
2021/05/02 03:53:48;;;;;;;;;;;;;;;4.34;100.00;98806.81;4901551;29;19965;-77
2021/05/02 03:56:28;;;;;;;;;;;;;;;4.27;100.00;98812.84;4901797;29;19915;-78
2021/05/02 03:59:02;;;;;;;;;;;;;;;4.16;100.00;98813.78;4906798;29;19930;-78
2021/05/02 04:01:36;;;;;;;;;;;;;;;4.21;100.00;98818.81;4904553;29;19924;-77
2021/05/02 04:04:02;;;;;;;;;;;;;;;4.15;100.00;98821.41;4907967;29;19915;-77
2021/05/02 04:06:30;;;;;;;;;;;;;;;4.08;100.00;98817.25;4894741;29;20377;-77
2021/05/02 04:08:55;;;;;;;;;;;;;;;4.04;100.00;98819.00;4894856;29;19915;-78
2021/05/02 04:11:21;;;;;;;;;;;;;;;3.98;100.00;98827.50;4899175;29;19996;-78
2021/05/02 04:13:46;;;;;;;;;;;;;;;4.08;100.00;98828.31;4887163;29;19926;-78
2021/05/02 04:16:15;;;;;;;;;;;;;;;4.23;100.00;98834.13;4891766;29;19974;-78
2021/05/02 04:18:41;;;;;;;;;;;;;;;4.12;100.00;98836.75;4886900;29;19962;-77
2021/05/02 04:21:06;;;;;;;;;;;;;;;4.36;100.00;98835.69;4900631;29;20457;-77
2021/05/02 04:23:33;;;;;;;;;;;;;;;4.24;100.00;98830.69;4902088;29;19915;-78
2021/05/02 04:25:58;;;;;;;;;;;;;;;4.08;100.00;98841.03;4902854;29;19915;-78
2021/05/02 04:28:23;;;;;;;;;;;;;;;4.09;100.00;98840.16;4891400;29;19947;-78
2021/05/02 04:30:49;;;;;;;;;;;;;;;4.26;100.00;98844.28;4885453;29;19926;-78
2021/05/02 04:33:14;;;;;;;;;;;;;;;4.24;100.00;98840.88;4900561;29;19951;-77
2021/05/02 04:35:40;;;;;;;;;;;;;;;4.11;100.00;98847.81;4890880;29;19930;-77
2021/05/02 04:38:05;;;;;;;;;;;;;;;4.22;100.00;98846.03;4885644;29;20772;-77
2021/05/02 04:40:30;;;;;;;;;;;;;;;4.28;100.00;98853.59;4901317;29;19923;-78
2021/05/02 04:42:56;;;;;;;;;;;;;;;4.29;100.00;98854.44;4901726;29;19966;-78
2021/05/02 04:45:21;;;;;;;;;;;;;;;4.33;100.00;98858.66;4900907;29;20433;-77
2021/05/02 04:47:46;;;;;;;;;;;;;;;4.24;100.00;98858.72;4899049;29;19915;-77
2021/05/02 04:50:11;;;;;;;;;;;;;;;4.12;100.00;98860.53;4900203;29;20301;-77
2021/05/02 04:52:39;;;;;;;;;;;;;;;4.24;100.00;98863.81;4894968;29;20022;-77
2021/05/02 04:55:05;;;;;;;;;;;;;;;4.50;100.00;98864.44;4889681;29;19971;-77
2021/05/02 04:57:30;;;;;;;;;;;;;;;4.43;100.00;98873.03;4900143;29;19919;-78
2021/05/02 04:59:56;;;;;;;;;;;;;;;4.27;100.00;98868.91;4920371;29;19915;-78
2021/05/02 05:02:21;;;;;;;;;;;;;;;4.24;100.00;98871.47;4902311;29;20018;-78
2021/05/02 05:04:46;;;;;;;;;;;;;;;4.30;100.00;98872.28;4884318;29;19974;-77
2021/05/02 05:07:12;;;;;;;;;;;;;;;4.37;100.00;98870.50;4897958;29;19969;-77
2021/05/02 05:09:37;;;;;;;;;;;;;;;4.34;100.00;98870.56;4902183;29;20400;-77
2021/05/02 05:12:02;;;;;;;;;;;;;;;4.35;100.00;98874.78;4907527;29;19922;-77
2021/05/02 05:14:28;;;;;;;;;;;;;;;4.40;100.00;98873.03;4888183;29;19920;-77
2021/05/02 05:16:53;;;;;;;;;;;;;;;4.38;100.00;98869.66;4901091;29;19915;-77
2021/05/02 05:19:18;;;;;;;;;;;;;;;4.57;100.00;98865.22;4900698;29;19997;-78
2021/05/02 05:21:44;;;;;;;;;;;;;;;4.54;100.00;98871.22;4885864;29;19936;-78
2021/05/02 05:24:09;;;;;;;;;;;;;;;4.50;100.00;98878.91;4901413;29;19923;-78
2021/05/02 05:26:34;;;;;;;;;;;;;;;4.40;100.00;98879.00;4885222;29;19954;-77
2021/05/02 05:29:00;;;;;;;;;;;;;;;4.38;100.00;98890.06;4920774;29;19986;-78
2021/05/02 05:31:25;;;;;;;;;;;;;;;4.35;100.00;98896.00;4891260;29;19915;-77
2021/05/02 05:33:51;;;;;;;;;;;;;;;4.49;100.00;98890.78;4891030;29;19967;-78
2021/05/02 05:36:16;;;;;;;;;;;;;;;4.49;100.00;98893.34;4907894;29;19943;-78
2021/05/02 05:38:41;;;;;;;;;;;;;;;4.44;100.00;98894.25;4903223;29;19921;-77
2021/05/02 05:41:07;;;;;;;;;;;;;;;4.31;100.00;98896.06;4903235;29;19926;-77
2021/05/02 05:43:32;;;;;;;;;;;;;;;4.49;100.00;98898.44;4891769;29;20489;-78
2021/05/02 05:45:57;;;;;;;;;;;;;;;4.49;100.00;98898.44;4908199;29;20546;-77
2021/05/02 05:48:23;;;;;;;;;;;;;;;4.56;100.00;98900.09;4907243;29;19922;-77
2021/05/02 05:50:49;;;;;;;;;;;;;;;4.36;100.00;98896.88;4908719;29;19990;-78
2021/05/02 05:53:17;;;;;;;;;;;;;;;4.46;100.00;98895.94;4889497;29;19941;-78
2021/05/02 05:55:43;;;;;;;;;;;;;;;4.43;100.00;98898.50;4887471;29;19918;-78
2021/05/02 05:58:08;;;;;;;;;;;;;;;4.47;100.00;98900.19;4898664;29;19987;-78
2021/05/02 06:00:34;;;;;;;;;;;;;;;4.43;100.00;98907.88;4908760;29;19921;-78
2021/05/02 06:02:59;;;;;;;;;;;;;;;4.31;100.00;98904.56;4891509;29;19919;-78
2021/05/02 06:05:24;;;;;;;;;;;;;;;4.19;100.00;98902.94;4907286;29;19934;-78
2021/05/02 06:07:50;;;;;;;;;;;;;;;4.11;100.00;98904.72;4907349;29;19922;-78
2021/05/02 06:10:15;;;;;;;;;;;;;;;4.17;100.00;98907.22;4894861;29;20376;-78
2021/05/02 06:12:40;;;;;;;;;;;;;;;4.11;100.00;98907.25;4907456;29;19999;-77
2021/05/02 06:15:06;;;;;;;;;;;;;;;4.24;100.00;98912.25;4906834;29;20899;-77
2021/05/02 06:17:32;;;;;;;;;;;;;;;4.28;100.00;98909.66;4906943;29;19947;-77
2021/05/02 06:19:57;;;;;;;;;;;;;;;4.18;100.00;98908.91;4894009;29;19966;-78
2021/05/02 06:22:23;;;;;;;;;;;;;;;4.39;100.00;98912.13;4907471;29;19915;-78
2021/05/02 06:24:48;;;;;;;;;;;;;;;4.39;100.00;98918.06;4907011;29;20270;-78
2021/05/02 06:27:14;;;;;;;;;;;;;;;4.40;100.00;98906.16;4925650;29;19966;-78
2021/05/02 06:29:39;;;;;;;;;;;;;;;4.51;100.00;98912.03;4905857;29;19965;-78
2021/05/02 06:32:05;;;;;;;;;;;;;;;4.46;100.00;98918.88;4908093;29;19942;-78
2021/05/02 06:34:30;;;;;;;;;;;;;;;4.71;100.00;98906.75;4907892;29;19923;-78
2021/05/02 06:36:58;;;;;;;;;;;;;;;4.60;100.00;98918.75;4907737;29;19923;-78
2021/05/02 06:39:25;;;;;;;;;;;;;;;4.43;100.00;98918.91;4907842;29;19915;-78
2021/05/02 06:41:50;;;;;;;;;;;;;;;4.59;100.00;98919.63;4905146;29;20360;-78
2021/05/02 06:44:15;;;;;;;;;;;;;;;4.55;100.00;98908.59;4908447;29;19951;-78
2021/05/02 06:46:40;;;;;;;;;;;;;;;4.73;100.00;98922.03;4892249;29;19919;-78
2021/05/02 06:49:06;;;;;;;;;;;;;;;4.51;100.00;98917.13;4900719;29;19919;-78
2021/05/02 06:51:32;;;;;;;;;;;;;;;4.82;100.00;98922.78;4908824;29;20671;-78
2021/05/02 06:53:57;;;;;;;;;;;;;;;4.71;100.00;98928.84;4889223;29;19915;-77
2021/05/02 06:56:23;;;;;;;;;;;;;;;4.77;100.00;98934.75;4910338;29;19962;-77
2021/05/02 06:58:49;;;;;;;;;;;;;;;4.51;100.00;98934.97;4926161;29;19979;-79
2021/05/02 07:01:14;;;;;;;;;;;;;;;4.54;100.00;98940.06;4888097;29;19915;-78
2021/05/02 07:03:39;;;;;;;;;;;;;;;4.82;100.00;98937.25;4906659;29;19919;-77
2021/05/02 07:06:05;;;;;;;;;;;;;;;4.74;100.00;98936.47;4889139;29;19950;-78
2021/05/02 07:08:30;;;;;;;;;;;;;;;4.71;100.00;98932.25;4906465;29;19923;-78
2021/05/02 07:10:56;;;;;;;;;;;;;;;4.71;100.00;98941.63;4889558;29;19922;-77
2021/05/02 07:13:21;;;;;;;;;;;;;;;4.49;100.00;98948.59;4906425;29;19919;-78
2021/05/02 07:15:47;;;;;;;;;;;;;;;4.66;100.00;98938.28;4902784;29;19919;-79
2021/05/02 07:18:13;;;;;;;;;;;;;;;4.43;100.00;98946.13;4905442;29;20134;-78
2021/05/02 07:20:38;;;;;;;;;;;;;;;4.33;100.00;98958.06;4891956;29;20033;-77
2021/05/02 07:23:03;;;;;;;;;;;;;;;4.34;100.00;98944.47;4891084;29;19919;-78
2021/05/02 07:25:29;;;;;;;;;;;;;;;4.40;100.00;98949.50;4905849;29;19962;-78
2021/05/02 07:27:54;;;;;;;;;;;;;;;4.27;100.00;98955.59;4922633;29;19923;-77
2021/05/02 07:30:20;;;;;;;;;;;;;;;4.30;100.00;98953.00;4896532;29;19926;-77
2021/05/02 07:32:45;;;;;;;;;;;;;;;4.41;100.00;98956.31;4900160;29;20014;-78
2021/05/02 07:35:11;;;;;;;;;;;;;;;4.26;100.00;98951.34;4902614;29;19919;-78
2021/05/02 07:37:36;;;;;;;;;;;;;;;4.43;100.00;98956.31;4888892;29;20022;-78
2021/05/02 07:40:02;;;;;;;;;;;;;;;4.46;100.00;98964.78;4902520;29;19922;-78
2021/05/02 07:42:28;;;;;;;;;;;;;;;4.41;100.00;98961.41;4886952;29;20441;-78
2021/05/02 07:44:53;;;;;;;;;;;;;;;4.35;100.00;98971.66;4906415;29;19923;-79
2021/05/02 07:47:19;;;;;;;;;;;;;;;4.44;100.00;98961.38;4889002;29;19927;-79
2021/05/02 07:49:44;;;;;;;;;;;;;;;4.39;100.00;98965.69;4904340;29;20399;-78
2021/05/02 07:52:10;;;;;;;;;;;;;;;4.51;100.00;98973.22;4888669;29;19915;-78
2021/05/02 07:54:35;;;;;;;;;;;;;;;4.57;100.00;98962.97;4903702;29;19919;-78
2021/05/02 07:57:00;;;;;;;;;;;;;;;4.66;100.00;98968.88;4884624;29;19923;-78
2021/05/02 07:59:26;;;;;;;;;;;;;;;4.82;100.00;98972.97;4906619;29;19923;-78
2021/05/02 08:01:51;;;;;;;;;;;;;;;5.09;100.00;98968.47;4903026;29;19919;-78
2021/05/02 08:04:17;;;;;;;;;;;;;;;4.95;100.00;98974.56;4907299;29;19923;-78
2021/05/02 08:06:42;;;;;;;;;;;;;;;5.14;100.00;98982.03;4900956;29;19927;-78
2021/05/02 08:09:07;;;;;;;;;;;;;;;4.87;100.00;98983.13;4905111;29;19926;-78
2021/05/02 08:11:33;;;;;;;;;;;;;;;4.84;100.00;98971.25;4906920;29;19927;-78
2021/05/02 08:13:59;;;;;;;;;;;;;;;5.00;100.00;98983.00;4906198;29;19919;-77
2021/05/02 08:16:25;;;;;;;;;;;;;;;5.11;100.00;98980.34;4903689;29;19943;-78
2021/05/02 08:18:50;;;;;;;;;;;;;;;5.08;100.00;98984.63;4899205;29;19923;-76
2021/05/02 08:21:17;;;;;;;;;;;;;;;5.44;100.00;98979.13;4882587;29;19935;-77
2021/05/02 08:23:43;;;;;;;;;;;;;;;5.77;100.00;98987.25;4900278;29;20133;-79
2021/05/02 08:26:08;;;;;;;;;;;;;;;5.75;100.00;98978.75;4919301;29;20143;-79
2021/05/02 08:28:33;;;;;;;;;;;;;;;6.77;100.00;98983.22;4897363;29;19923;-78
2021/05/02 08:30:59;;;;;;;;;;;;;;;6.25;100.00;99000.25;4893644;29;19934;-79
2021/05/02 08:33:24;;;;;;;;;;;;;;;7.12;100.00;98986.91;4878256;29;19919;-79
2021/05/02 08:35:49;;;;;;;;;;;;;;;7.14;100.00;98992.84;4887976;29;20259;-79
2021/05/02 08:38:15;;;;;;;;;;;;;;;6.49;100.00;98993.06;4899582;29;19923;-78
2021/05/02 08:40:40;;;;;;;;;;;;;;;6.16;100.00;98990.16;4897151;29;19970;-79
2021/05/02 08:43:06;;;;;;;;;;;;;;;5.89;100.00;99000.75;4895904;29;19923;-78
2021/05/02 08:45:31;;;;;;;;;;;;;;;5.86;100.00;99016.94;4900417;29;19962;-77
2021/05/02 08:47:57;;;;;;;;;;;;;;;5.93;100.00;99017.72;4880540;29;19919;-77
2021/05/02 08:50:22;;;;;;;;;;;;;;;6.48;100.00;99009.31;4886249;29;19923;-77
2021/05/02 08:52:48;;;;;;;;;;;;;;;7.61;100.00;98995.38;4897988;29;19919;-78
2021/05/02 08:55:13;;;;;;;;;;;;;;;6.92;100.00;99007.75;4900043;29;19923;-77
2021/05/02 08:57:38;;;;;;;;;;;;;;;7.30;100.00;99003.66;4877638;29;19923;-78
2021/05/02 09:00:05;;;;;;;;;;;;;;;7.29;100.00;98996.84;4887105;29;19931;-78
2021/05/02 09:02:31;;;;;;;;;;;;;;;6.81;100.00;99004.50;4884607;29;20014;-78
2021/05/02 09:05:00;;;;;;;;;;;;;;;6.77;100.00;99002.88;4913898;29;19927;-78
2021/05/02 09:07:26;;;;;;;;;;;;;;;7.12;100.00;99013.34;4883945;29;19923;-77
2021/05/02 09:09:51;;;;;;;;;;;;;;;7.12;100.00;99015.91;4884665;29;19978;-77
2021/05/02 09:12:21;;;;;;;;;;;;;;;6.91;100.00;99008.59;4897558;29;19988;-77
2021/05/02 09:14:47;;;;;;;;;;;;;;;6.57;100.00;99019.41;4897201;29;19915;-78
2021/05/02 09:17:15;;;;;;;;;;;;;;;6.66;100.00;99016.69;4897187;29;20498;-77
2021/05/02 09:19:48;;;;;;;;;;;;;;;6.87;100.00;99022.34;4880938;29;19915;-78
2021/05/02 09:22:14;;;;;;;;;;;;;;;7.33;100.00;99021.53;4896649;29;20376;-77
2021/05/02 09:24:39;;;;;;;;;;;;;;;7.05;100.00;99024.59;4897109;29;19971;-77
2021/05/02 09:27:04;;;;;;;;;;;;;;;6.84;100.00;99020.69;4896292;29;19980;-77
2021/05/02 09:29:31;;;;;;;;;;;;;;;7.06;100.00;99026.25;4914387;29;19954;-77
2021/05/02 09:31:56;;;;;;;;;;;;;;;8.19;99.71;99012.09;4893521;29;19966;-77
2021/05/02 09:34:21;;;;;;;;;;;;;;;8.47;99.13;99008.94;4896798;29;19958;-77
2021/05/02 09:36:56;;;;;;;;;;;;;;;7.28;100.00;99025.91;4890143;29;19919;-76
2021/05/02 09:39:41;;;;;;;;;;;;;;;6.78;100.00;99022.50;4915240;29;20006;-77
2021/05/02 09:42:07;;;;;;;;;;;;;;;6.81;100.00;99030.09;4892338;29;19967;-77
2021/05/02 09:44:39;;;;;;;;;;;;;;;6.72;99.28;99035.38;4890944;29;19923;-77
2021/05/02 09:47:23;;;;;;;;;;;;;;;6.94;100.00;99023.09;4873495;29;19923;-77
2021/05/02 09:50:02;;;;;;;;;;;;;;;8.34;96.37;99029.69;4916252;29;20304;-77
2021/05/02 09:52:48;;;;;;;;;;;;;;;9.11;93.11;99027.88;4897498;29;19974;-77
2021/05/02 09:55:20;;;;;;;;;;;;;;;8.16;95.37;99024.97;4912603;29;19919;-77
2021/05/02 09:57:57;;;;;;;;;;;;;;;7.52;95.24;99035.66;4913340;29;19925;-77
2021/05/02 10:00:26;;;;;;;;;;;;;;;7.07;94.84;99043.31;4905912;29;19919;-77
2021/05/02 10:02:51;;;;;;;;;;;;;;;7.04;96.89;99040.81;4908843;29;19916;-77
2021/05/02 10:05:16;;;;;;;;;;;;;;;6.95;98.59;99053.75;4889075;29;19943;-78
2021/05/02 10:07:42;;;;;;;;;;;;;;;6.94;98.23;99049.53;4896682;29;19923;-78
2021/05/02 10:10:07;;;;;;;;;;;;;;;7.03;95.20;99046.81;4891898;29;19919;-78
2021/05/02 10:12:33;;;;;;;;;;;;;;;7.66;97.45;99042.25;4896685;29;19970;-77
2021/05/02 10:14:59;;;;;;;;;;;;;;;8.55;91.42;99033.53;4882045;29;20081;-79
2021/05/02 10:17:24;;;;;;;;;;;;;;;9.26;87.78;99028.38;4901196;29;19919;-78
2021/05/02 10:19:49;;;;;;;;;;;;;;;9.29;86.37;99034.28;4900874;29;19966;-79
2021/05/02 10:22:18;;;;;;;;;;;;;;;9.13;84.71;99041.53;4898497;29;19958;-79
2021/05/02 10:24:44;;;;;;;;;;;;;;;9.15;83.93;99031.25;4901077;29;19919;-78
2021/05/02 10:27:10;;;;;;;;;;;;;;;8.72;86.23;99033.13;4903876;29;19919;-79
2021/05/02 10:29:38;;;;;;;;;;;;;;;8.13;89.99;99045.56;4889607;29;19943;-78
2021/05/02 10:32:05;;;;;;;;;;;;;;;7.95;89.15;99039.94;4917305;29;19923;-78
2021/05/02 10:34:32;;;;;;;;;;;;;;;7.75;88.36;99047.19;4900868;29;20679;-79
2021/05/02 10:37:16;;;;;;;;;;;;;;;7.60;85.79;99047.50;4889390;29;19978;-78
2021/05/02 10:39:57;;;;;;;;;;;;;;;7.44;85.02;99052.91;4920031;29;20000;-78
2021/05/02 10:42:39;;;;;;;;;;;;;;;7.56;84.59;99061.25;4889267;29;19915;-78
2021/05/02 10:45:23;;;;;;;;;;;;;;;8.34;83.67;99044.25;4890445;29;19944;-78
2021/05/02 10:47:48;;;;;;;;;;;;;;;8.88;81.44;99035.34;4918712;29;19933;-78
2021/05/02 10:50:27;;;;;;;;;;;;;;;8.59;83.26;99042.00;4881005;29;20441;-78
2021/05/02 10:53:13;;;;;;;;;;;;;;;8.65;84.37;99053.88;4899551;29;19915;-78
2021/05/02 10:55:56;;;;;;;;;;;;;;;7.85;76.95;99058.97;4890337;29;19954;-79
2021/05/02 10:58:25;;;;;;;;;;;;;;;8.02;80.69;99050.06;4917664;29;20005;-77
2021/05/02 11:00:55;;;;;;;;;;;;;;;7.83;80.26;99058.16;4903080;29;19915;-77
2021/05/02 11:03:35;;;;;;;;;;;;;;;7.61;80.76;99069.69;4901794;29;19915;-78
2021/05/02 11:06:04;;;;;;;;;;;;;;;7.74;86.05;99060.91;4917274;29;19930;-77
2021/05/02 11:08:45;;;;;;;;;;;;;;;7.87;87.08;99062.34;4904160;29;19941;-77
2021/05/02 11:11:28;;;;;;;;;;;;;;;8.12;85.97;99061.84;4918053;29;19915;-76
2021/05/02 11:14:15;;;;;;;;;;;;;;;8.50;86.15;99058.44;4917925;29;20333;-76
2021/05/02 11:16:41;;;;;;;;;;;;;;;8.46;80.38;99071.38;4915284;29;19921;-77
2021/05/02 11:19:11;;;;;;;;;;;;;;;8.89;84.29;99065.25;4900764;29;19919;-76
2021/05/02 11:21:46;;;;;;;;;;;;;;;9.05;82.38;99071.72;4886935;29;19923;-78
2021/05/02 11:24:11;;;;;;;;;;;;;;;8.98;81.32;99062.47;4921668;29;20008;-78
2021/05/02 11:29:46;;;;;;;;;;;;;;;8.18;79.17;99077.09;4907063;29;20018;-77
2021/05/02 11:32:12;;;;;;;;;;;;;;;8.42;79.99;99080.91;4905068;29;19974;-78
2021/05/02 11:34:50;;;;;;;;;;;;;;;8.87;77.46;99074.72;4905436;29;19918;-77
2021/05/02 11:37:34;;;;;;;;;;;;;;;8.58;77.20;99081.41;4920902;29;20013;-77
2021/05/02 11:39:59;;;;;;;;;;;;;;;8.48;76.51;99073.03;4897542;29;19930;-78
2021/05/02 11:42:24;;;;;;;;;;;;;;;8.77;77.39;99079.25;4902171;29;19919;-78
2021/05/02 11:44:52;;;;;;;;;;;;;;;8.58;76.13;99079.66;4900060;29;19951;-77
2021/05/02 11:47:17;;;;;;;;;;;;;;;9.08;80.03;99081.94;4878138;29;19933;-77
2021/05/02 11:49:43;;;;;;;;;;;;;;;8.40;77.18;99081.78;4900845;29;19915;-77
2021/05/02 11:52:08;;;;;;;;;;;;;;;8.57;82.31;99083.09;4918116;29;20002;-77
2021/05/02 11:54:34;;;;;;;;;;;;;;;8.24;81.22;99086.41;4899283;29;19978;-77
2021/05/02 11:56:59;;;;;;;;;;;;;;;8.04;83.73;99115.00;4901548;29;19930;-77
2021/05/02 11:59:25;;;;;;;;;;;;;;;7.67;81.10;99101.19;4882379;29;20012;-78
2021/05/02 12:01:50;;;;;;;;;;;;;;;7.76;81.11;99095.03;4900418;29;19916;-78
2021/05/02 12:04:18;;;;;;;;;;;;;;;7.53;83.06;99108.28;4884161;29;20258;-78
2021/05/02 12:06:44;;;;;;;;;;;;;;;7.62;84.64;99103.00;4900611;29;19962;-77
2021/05/02 12:09:24;;;;;;;;;;;;;;;7.59;82.59;99107.31;4885248;29;19990;-78
2021/05/02 12:11:56;;;;;;;;;;;;;;;7.80;83.59;99095.81;4919678;29;19919;-76
2021/05/02 12:14:23;;;;;;;;;;;;;;;7.90;82.24;99111.00;4891947;29;20043;-77
2021/05/02 12:16:50;;;;;;;;;;;;;;;8.37;83.88;99109.19;4899630;29;20009;-77
2021/05/02 12:19:15;;;;;;;;;;;;;;;8.38;81.60;99100.59;4894460;29;19926;-78
2021/05/02 12:21:43;;;;;;;;;;;;;;;8.29;82.50;99112.78;4912360;29;20017;-78
2021/05/02 12:24:09;;;;;;;;;;;;;;;8.28;84.72;99108.53;4889853;29;20377;-77
2021/05/02 12:26:36;;;;;;;;;;;;;;;7.91;82.96;99105.00;4913281;29;19967;-77
2021/05/02 12:29:03;;;;;;;;;;;;;;;7.83;82.69;99106.88;4896956;29;20448;-77
2021/05/02 12:31:28;;;;;;;;;;;;;;;7.94;83.56;99114.34;4878472;29;19915;-78
2021/05/02 12:33:54;;;;;;;;;;;;;;;7.66;81.85;99119.13;4887441;29;20689;-77
2021/05/02 12:36:20;;;;;;;;;;;;;;;7.66;85.96;99124.25;4899532;29;19923;-76
2021/05/02 12:38:46;;;;;;;;;;;;;;;7.70;82.53;99121.63;4886552;29;20730;-77
2021/05/02 12:41:18;;;;;;;;;;;;;;;7.69;86.60;99122.50;4875456;29;19922;-77
2021/05/02 12:43:50;;;;;;;;;;;;;;;7.93;88.56;99123.75;4894015;29;19923;-76
2021/05/02 12:46:34;;;;;;;;;;;;;;;8.10;90.90;99120.03;4881740;29;19927;-77
2021/05/02 12:49:08;;;;;;;;;;;;;;;7.94;85.75;99130.56;4911102;29;19923;-77
2021/05/02 12:51:33;;;;;;;;;;;;;;;7.83;83.22;99129.94;4912118;29;19919;-76
2021/05/02 12:54:05;;;;;;;;;;;;;;;8.14;84.77;99127.63;4886582;29;19930;-77